Time;durP1;ratioP1;P1;durP2;ratioP2;P2;SDS_P1;SDS_P2;PMS_P1;PMS_P2;Temp;Humidity;BMP_temperature;BMP_pressure;BME280_temperature;BME280_humidity;BME280_pressure;Samples;Min_cycle;Max_cycle;Signal;HPM_P1;HPM_P2
2024/03/03 00:01:57;;;;;;;;;13.50;13.00;;;;;10.21;77.51;100801.88;146609;604;46021;-67
2024/03/03 00:05:04;;;;;;;;;16.50;14.25;;;;;9.49;77.38;100672.84;146605;569;47016;-68
2024/03/03 00:08:08;;;;;;;;;10.00;10.00;;;;;10.23;77.10;100798.56;146606;660;47020;-68
2024/03/03 00:11:04;;;;;;;;;9.25;7.00;;;;;10.18;77.52;100800.91;146606;590;46017;-69
2024/03/03 00:14:14;;;;;;;;;6.75;5.75;;;;;10.13;77.04;100796.28;146603;569;46020;-68
2024/03/03 00:17:15;;;;;;;;;7.75;5.25;;;;;10.08;77.01;100803.81;146611;567;46016;-67
2024/03/03 00:20:24;;;;;;;;;6.75;5.00;;;;;10.00;77.31;100794.75;146615;650;47012;-68
2024/03/03 00:23:17;;;;;;;;;8.75;6.00;;;;;9.96;77.65;100792.78;146608;637;47012;-68
2024/03/03 00:26:23;;;;;;;;;8.75;7.00;;;;;9.95;77.81;100791.88;146611;564;47010;-68
2024/03/03 00:29:27;;;;;;;;;11.25;9.25;;;;;9.95;77.87;100796.19;146609;589;47014;-68
2024/03/03 00:32:28;;;;;;;;;12.25;9.00;;;;;9.99;78.00;100795.53;146616;581;46010;-67
2024/03/03 00:35:37;;;;;;;;;7.25;6.00;;;;;10.03;77.93;100801.75;146611;591;47012;-67
2024/03/03 00:38:37;;;;;;;;;4.00;4.00;;;;;10.02;77.95;100793.09;146614;583;47010;-68
2024/03/03 00:41:30;;;;;;;;;4.00;3.33;;;;;10.01;77.65;100803.41;146612;563;46035;-68
2024/03/03 00:44:23;;;;;;;;;3.33;2.00;;;;;9.96;77.73;100803.13;146603;648;47020;-69
2024/03/03 00:47:21;;;;;;;;;4.33;4.00;;;;;9.97;77.21;100804.03;146609;662;47013;-69
2024/03/03 00:50:32;;;;;;;;;3.00;2.00;;;;;7.31;76.85;100341.91;146613;569;46010;-68
2024/03/03 00:53:37;;;;;;;;;6.50;6.25;;;;;10.00;77.56;100799.94;146609;673;46017;-68
2024/03/03 00:56:51;;;;;;;;;;;;;;;;;;;;;
2024/03/03 00:59:56;;;;;;;;;14.75;13.50;;;;;9.92;76.57;100803.78;146608;596;47012;-68
2024/03/03 01:03:02;;;;;;;;;16.00;15.75;;;;;9.82;77.31;100804.09;146605;572;47020;-68
2024/03/03 01:06:04;;;;;;;;;26.75;19.75;;;;;9.72;77.17;100800.09;146602;580;46033;-69
2024/03/03 01:08:59;;;;;;;;;28.25;25.75;;;;;9.68;77.85;100801.59;146609;719;46021;-67
2024/03/03 01:11:53;;;;;;;;;31.50;26.50;;;;;9.71;78.62;100809.53;146604;624;46016;-67
2024/03/03 01:14:58;;;;;;;;;19.50;15.50;;;;;9.76;78.70;100795.97;146601;684;46020;-66
2024/03/03 01:17:53;;;;;;;;;23.00;18.75;;;;;9.77;78.86;100796.06;146602;564;47016;-66
2024/03/03 01:20:57;;;;;;;;;19.25;16.00;;;;;9.76;78.44;100788.22;146604;682;47012;-68
2024/03/03 01:23:56;;;;;;;;;22.75;20.50;;;;;9.69;78.32;100781.81;146601;664;46017;-68
2024/03/03 01:27:06;;;;;;;;;;;;;;;;;;;;;
2024/03/03 01:30:05;;;;;;;;;20.50;16.50;;;;;9.65;78.21;100785.00;146602;586;46016;-69
2024/03/03 01:33:07;;;;;;;;;16.50;13.50;;;;;9.63;78.57;100776.28;146606;611;46030;-69
2024/03/03 01:36:17;;;;;;;;;14.00;10.75;;;;;9.57;78.01;100769.06;146601;570;47012;-67
2024/03/03 01:39:11;;;;;;;;;14.50;14.50;;;;;9.55;78.13;100767.19;146607;622;46035;-68
2024/03/03 01:42:05;;;;;;;;;13.50;11.50;;;;;9.51;78.23;100796.31;146605;582;46016;-68
2024/03/03 01:45:22;;;;;;;;;;;;;;;;;;;;;
2024/03/03 01:48:25;;;;;;;;;17.00;14.75;;;;;9.29;77.70;100757.97;146603;628;47012;-68
2024/03/03 01:51:35;;;;;;;;;13.75;12.50;;;;;9.21;78.53;100762.69;146606;615;47010;-67
2024/03/03 01:54:41;;;;;;;;;14.25;14.00;;;;;9.18;78.58;100804.78;146606;592;46034;-68
2024/03/03 01:57:56;;;;;;;;;16.50;13.25;;;;;9.17;78.54;100752.97;146605;660;47010;-68
2024/03/03 02:01:07;;;;;;;;;14.50;12.00;;;;;9.13;78.59;100746.75;146605;564;47012;-67
2024/03/03 02:04:08;;;;;;;;;13.50;12.25;;;;;9.09;79.26;100746.47;146602;650;48010;-67
2024/03/03 02:07:02;;;;;;;;;19.50;18.00;;;;;9.12;79.36;100744.94;146605;615;46013;-67
2024/03/03 02:10:15;;;;;;;;;18.00;16.00;;;;;9.03;79.62;100739.25;146607;593;46010;-67
2024/03/03 02:13:13;;;;;;;;;19.75;16.25;;;;;9.09;79.96;100754.22;146603;635;47016;-67
2024/03/03 02:16:21;;;;;;;;;20.75;14.50;;;;;9.11;80.30;100753.53;146599;621;47018;-69
2024/03/03 02:19:21;;;;;;;;;16.25;13.00;;;;;9.12;79.87;100755.28;146601;581;46016;-69
2024/03/03 02:22:20;;;;;;;;;13.00;10.25;;;;;9.11;79.52;100762.97;146608;581;47012;-69
2024/03/03 02:25:26;;;;;;;;;11.75;10.00;;;;;9.10;79.36;100766.37;146604;645;46016;-66
2024/03/03 02:28:19;;;;;;;;;11.00;10.75;;;;;9.08;79.77;100765.38;146607;605;47020;-70
2024/03/03 02:31:34;;;;;;;;;15.00;12.25;;;;;9.00;80.03;100770.09;146604;624;46016;-67
2024/03/03 02:34:38;;;;;;;;;15.50;11.00;;;;;8.96;80.81;100773.31;146608;578;47020;-67
2024/03/03 02:37:37;;;;;;;;;10.25;9.00;;;;;8.92;80.24;100776.53;146603;570;46012;-67
2024/03/03 02:40:39;;;;;;;;;9.25;7.75;;;;;8.91;80.48;100778.25;146614;581;47010;-67
2024/03/03 02:43:42;;;;;;;;;10.50;7.50;;;;;8.89;80.00;100787.59;146608;569;47012;-68
2024/03/03 02:46:36;;;;;;;;;8.50;8.50;;;;;8.82;80.74;100769.94;146601;582;47010;-66
2024/03/03 02:49:32;;;;;;;;;10.75;8.00;;;;;8.89;80.35;100789.28;146608;572;47914;-67
2024/03/03 02:52:28;;;;;;;;;10.00;9.00;;;;;8.85;80.41;100784.72;146616;598;46021;-66
2024/03/03 02:55:42;;;;;;;;;10.50;9.00;;;;;4.93;79.15;100101.75;146613;661;46914;-66
2024/03/03 02:58:37;;;;;;;;;7.00;6.00;;;;;8.86;79.90;100786.53;146616;636;46040;-65
2024/03/03 03:01:48;;;;;;;;;9.50;7.25;;;;;8.88;80.02;100784.91;146606;599;47016;-66
2024/03/03 03:05:03;;;;;;;;;10.75;9.75;;;;;8.86;79.72;100786.53;146614;600;46030;-64
2024/03/03 03:08:10;;;;;;;;;7.75;6.75;;;;;8.81;79.84;100790.50;146610;687;46915;-64
2024/03/03 03:11:36;;;;;;;;;5.00;4.00;;;;;8.79;80.14;100790.44;146615;723;47010;-67
2024/03/03 03:14:38;;;;;;;;;7.25;5.50;;;;;8.80;79.98;100787.03;146608;570;46017;-66
2024/03/03 03:17:36;;;;;;;;;5.25;5.25;;;;;8.81;80.61;100783.66;146603;572;46020;-66
2024/03/03 03:20:31;;;;;;;;;3.50;3.00;;;;;8.78;80.37;100779.22;146608;662;47029;-66
2024/03/03 03:23:25;;;;;;;;;5.75;3.50;;;;;8.81;79.95;100780.19;146615;582;46012;-65
2024/03/03 03:26:41;;;;;;;;;5.25;2.75;;;;;5.15;78.93;100152.81;146610;586;47012;-65
2024/03/03 03:29:36;;;;;;;;;4.25;3.75;;;;;8.85;79.31;100785.63;146617;637;46021;-65
2024/03/03 03:32:34;;;;;;;;;5.75;4.00;;;;;8.87;79.34;100784.00;146613;609;46016;-65
2024/03/03 03:35:41;;;;;;;;;;;;;;;;;;;;;
2024/03/03 03:38:34;;;;;;;;;6.00;5.00;;;;;8.73;79.28;100771.97;146609;645;47017;-67
2024/03/03 03:41:30;;;;;;;;;4.25;4.25;;;;;8.66;79.05;100768.16;146617;612;46020;-67
2024/03/03 03:44:29;;;;;;;;;4.50;4.25;;;;;8.60;79.95;100752.28;146609;685;47012;-67
2024/03/03 03:47:41;;;;;;;;;5.25;5.25;;;;;8.56;79.67;100763.22;146603;602;46020;-66
2024/03/03 03:50:41;;;;;;;;;4.25;4.25;;;;;8.52;79.50;100758.66;146610;609;46012;-66
2024/03/03 03:53:33;;;;;;;;;7.75;6.75;;;;;8.49;79.89;100759.37;146614;613;47012;-66
2024/03/03 03:56:28;;;;;;;;;6.75;5.75;;;;;8.47;79.89;100762.66;146608;584;47014;-66
2024/03/03 03:59:21;;;;;;;;;7.00;5.75;;;;;7.03;79.72;100513.81;146615;572;47010;-68
2024/03/03 04:02:15;;;;;;;;;5.75;5.50;;;;;8.39;80.29;100762.22;146612;658;46016;-68
2024/03/03 04:05:26;;;;;;;;;6.00;5.25;;;;;4.40;79.54;100072.69;146610;574;47010;-67
2024/03/03 04:08:34;;;;;;;;;6.50;6.25;;;;;8.43;80.43;100765.87;146609;564;46915;-66
2024/03/03 04:11:52;;;;;;;;;;;;;;;;;;;;;
2024/03/03 04:14:55;;;;;;;;;5.50;5.50;;;;;8.38;80.13;100764.66;146610;717;47012;-66
2024/03/03 04:17:59;;;;;;;;;8.25;5.00;;;;;8.39;80.68;100762.22;146603;700;46020;-68
2024/03/03 04:21:01;;;;;;;;;6.75;6.50;;;;;8.38;80.57;100769.81;146612;564;47012;-68
2024/03/03 04:23:58;;;;;;;;;5.75;5.25;;;;;8.40;80.33;100768.25;146616;569;47010;-69
2024/03/03 04:27:09;;;;;;;;;8.75;7.00;;;;;8.40;80.18;100769.16;146608;569;47016;-69
2024/03/03 04:30:02;;;;;;;;;6.50;5.50;;;;;8.35;80.10;100767.97;146615;570;47012;-66
2024/03/03 04:33:03;;;;;;;;;3.75;3.75;;;;;8.33;80.49;100772.13;146613;563;46016;-67
2024/03/03 04:36:26;;;;;;;;;4.75;4.75;;;;;8.31;80.52;100778.88;146604;630;47012;-66
2024/03/03 04:39:33;;;;;;;;;5.00;4.00;;;;;8.27;80.69;100771.75;146610;666;46034;-66
2024/03/03 04:42:27;;;;;;;;;7.00;4.50;;;;;8.28;80.99;100773.53;146611;641;47010;-69
2024/03/03 04:45:26;;;;;;;;;4.00;3.00;;;;;8.33;80.84;100774.72;146631;645;46014;-67
2024/03/03 04:48:22;;;;;;;;;4.00;4.00;;;;;8.34;80.65;100779.06;146630;671;45026;-68
2024/03/03 04:51:18;;;;;;;;;5.00;3.50;;;;;8.35;80.57;100767.97;146634;703;45017;-67
2024/03/03 04:54:38;;;;;;;;;5.00;5.00;;;;;8.42;80.61;100777.00;146635;610;45010;-68
2024/03/03 04:57:45;;;;;;;;;4.50;3.00;;;;;8.49;80.28;100780.03;146634;592;45916;-68
2024/03/03 05:00:39;;;;;;;;;5.00;4.00;;;;;8.51;80.08;100787.91;146637;650;46010;-68
2024/03/03 05:03:51;;;;;;;;;4.50;3.00;;;;;8.55;80.47;100789.87;146633;703;46014;-68
2024/03/03 05:06:56;;;;;;;;;5.75;3.75;;;;;8.56;79.85;100795.09;146638;600;46012;-68
2024/03/03 05:09:54;;;;;;;;;6.00;3.50;;;;;8.51;80.08;100791.38;146634;721;46016;-69
2024/03/03 05:12:54;;;;;;;;;7.25;5.00;;;;;8.47;81.12;100797.16;146636;591;46012;-67
2024/03/03 05:16:04;;;;;;;;;4.00;3.75;;;;;8.52;81.05;100797.44;146634;654;45016;-68
2024/03/03 05:18:59;;;;;;;;;2.25;2.00;;;;;8.60;80.82;100793.63;146627;677;46020;-69
2024/03/03 05:21:58;;;;;;;;;5.25;3.50;;;;;8.71;81.31;100795.12;146633;729;46016;-68
2024/03/03 05:25:01;;;;;;;;;5.50;5.00;;;;;8.85;80.91;100792.47;146635;690;45020;-70
2024/03/03 05:27:57;;;;;;;;;7.25;4.50;;;;;8.98;80.74;100798.47;146632;625;46016;-66
2024/03/03 05:31:25;;;;;;;;;5.25;5.25;;;;;9.19;80.63;100801.44;146634;593;45020;-68
2024/03/03 05:34:31;;;;;;;;;6.00;4.00;;;;;9.55;80.59;100799.13;146634;672;45012;-68
2024/03/03 05:37:30;;;;;;;;;6.00;5.00;;;;;9.89;79.89;100795.84;146635;578;46010;-67
2024/03/03 05:40:28;;;;;;;;;5.25;4.00;;;;;10.26;80.19;100798.75;146630;576;46012;-69
2024/03/03 05:43:26;;;;;;;;;6.00;3.75;;;;;10.77;77.85;100794.50;146631;671;45020;-70
2024/03/03 05:46:23;;;;;;;;;8.25;4.50;;;;;11.38;76.55;100799.31;146609;576;47012;-68
2024/03/03 05:49:19;;;;;;;;;6.50;4.50;;;;;12.08;74.33;100785.31;146603;618;46021;-65
2024/03/03 05:52:15;;;;;;;;;6.50;3.75;;;;;12.73;72.78;100789.09;146611;569;47012;-66
2024/03/03 05:55:22;;;;;;;;;5.25;4.75;;;;;13.33;70.93;100790.84;146617;628;46020;-65
2024/03/03 05:58:29;;;;;;;;;4.50;4.50;;;;;10.51;69.97;100285.06;146606;694;47014;-66
2024/03/03 06:01:33;;;;;;;;;5.00;3.00;;;;;14.05;68.93;100798.91;146614;577;47010;-68
2024/03/03 06:04:37;;;;;;;;;8.75;6.00;;;;;14.30;67.45;100803.34;146612;600;46012;-66
2024/03/03 06:07:44;;;;;;;;;13.75;12.50;;;;;14.55;65.60;100804.28;146615;603;46020;-65
2024/03/03 06:10:41;;;;;;;;;19.75;11.25;;;;;14.79;66.26;100809.47;146601;630;47016;-65
2024/03/03 06:13:34;;;;;;;;;13.50;12.00;;;;;15.01;65.47;100806.78;146605;583;46021;-67
2024/03/03 06:16:47;;;;;;;;;13.25;12.00;;;;;15.16;64.73;100814.25;146605;608;46912;-67
2024/03/03 06:19:53;;;;;;;;;13.50;12.50;;;;;15.20;62.17;100815.22;146602;599;46021;-67
2024/03/03 06:22:52;;;;;;;;;20.25;15.25;;;;;15.14;62.18;100826.38;146600;611;47012;-65
2024/03/03 06:25:57;;;;;;;;;14.50;13.25;;;;;15.07;62.80;100823.47;146605;588;47020;-65
2024/03/03 06:29:01;;;;;;;;;24.00;16.50;;;;;14.99;61.97;100831.06;146598;569;47013;-66
2024/03/03 06:32:05;;;;;;;;;16.50;14.75;;;;;14.75;62.35;100821.53;146607;600;47010;-67
2024/03/03 06:35:01;;;;;;;;;15.50;14.75;;;;;13.01;62.83;100543.91;146603;624;47014;-67
2024/03/03 06:37:59;;;;;;;;;14.00;13.00;;;;;14.49;63.53;100817.06;146605;575;47010;-67
2024/03/03 06:41:02;;;;;;;;;16.25;14.75;;;;;14.51;62.79;100833.66;146603;565;46012;-66
2024/03/03 06:44:02;;;;;;;;;16.25;13.25;;;;;14.33;62.55;100824.31;146603;682;47020;-67
2024/03/03 06:47:05;;;;;;;;;7.00;6.50;;;;;14.34;62.69;100830.41;146604;630;47016;-68
2024/03/03 06:50:07;;;;;;;;;12.50;8.50;;;;;14.27;61.82;100831.03;146599;623;47010;-68
2024/03/03 06:53:02;;;;;;;;;8.00;8.00;;;;;14.22;62.05;100837.78;146609;628;47014;-68
2024/03/03 06:56:09;;;;;;;;;;;;;;;;;;;;;
2024/03/03 06:59:12;;;;;;;;;10.00;5.33;;;;;14.22;62.91;100843.87;146611;658;47913;-66
2024/03/03 07:02:11;;;;;;;;;6.00;4.67;;;;;14.43;65.49;100843.81;146617;572;47010;-69
2024/03/03 07:05:15;;;;;;;;;8.33;5.67;;;;;14.67;64.09;100830.81;146608;591;47014;-68
2024/03/03 07:08:14;;;;;;;;;9.67;7.67;;;;;15.01;63.12;100843.34;146616;659;46020;-69
2024/03/03 07:11:21;;;;;;;;;11.75;8.50;;;;;15.29;63.85;100843.37;146609;685;47012;-67
2024/03/03 07:14:19;;;;;;;;;7.00;7.00;;;;;15.51;61.45;100832.81;146616;590;46020;-68
2024/03/03 07:17:11;;;;;;;;;14.25;11.00;;;;;15.67;61.26;100829.91;146608;663;46017;-69
2024/03/03 07:20:08;;;;;;;;;13.75;11.00;;;;;15.83;59.26;100836.53;146600;720;46021;-67
2024/03/03 07:23:04;;;;;;;;;7.75;7.25;;;;;15.96;58.31;100829.06;146605;649;46025;-68
2024/03/03 07:26:12;;;;;;;;;13.75;10.25;;;;;15.99;60.11;100827.44;146614;730;46029;-66
2024/03/03 07:29:13;;;;;;;;;9.00;8.00;;;;;16.19;59.14;100833.25;146603;577;47012;-70
2024/03/03 07:32:08;;;;;;;;;7.33;6.67;;;;;16.27;59.88;100829.16;146613;626;47010;-70
2024/03/03 07:35:14;;;;;;;;;11.50;8.00;;;;;16.47;59.28;100842.81;146608;613;47012;-71
2024/03/03 07:38:09;;;;;;;;;10.67;9.67;;;;;16.55;58.29;100862.25;146613;611;46020;-69
2024/03/03 07:41:13;;;;;;;;;10.67;8.67;;;;;16.62;56.82;100847.59;146611;633;46016;-69
2024/03/03 07:44:16;;;;;;;;;11.50;10.00;;;;;16.50;57.71;100840.28;146614;577;46029;-69
2024/03/03 07:47:12;;;;;;;;;14.50;12.50;;;;;16.62;56.28;100853.72;146607;597;47012;-68
2024/03/03 07:50:05;;;;;;;;;15.00;14.75;;;;;16.76;57.79;100850.63;146606;564;47011;-67
2024/03/03 07:53:01;;;;;;;;;16.75;14.25;;;;;16.91;57.20;100850.19;146612;738;46016;-68
2024/03/03 07:55:54;;;;;;;;;20.25;15.25;;;;;17.03;57.74;100851.41;146615;612;46020;-67
2024/03/03 07:58:47;;;;;;;;;20.25;19.50;;;;;17.27;57.98;100864.28;146610;596;46012;-67
2024/03/03 08:01:45;;;;;;;;;22.50;20.50;;;;;17.47;57.47;100850.78;146616;613;46020;-68
2024/03/03 08:04:54;;;;;;;;;22.00;18.25;;;;;17.68;58.74;100859.19;146607;587;46016;-69
2024/03/03 08:07:58;;;;;;;;;19.75;17.00;;;;;17.88;58.06;100857.09;146612;573;47010;-67
2024/03/03 08:10:52;;;;;;;;;18.75;17.00;;;;;18.09;56.13;100861.03;146611;570;46030;-67
2024/03/03 08:13:59;;;;;;;;;21.50;19.25;;;;;18.19;56.49;100858.69;146615;564;46020;-67
2024/03/03 08:16:58;;;;;;;;;21.75;19.75;;;;;18.28;56.71;100862.34;146612;601;46034;-68
2024/03/03 08:19:52;;;;;;;;;24.50;22.00;;;;;18.42;55.49;100863.53;146608;566;46021;-68
2024/03/03 08:22:50;;;;;;;;;27.25;22.00;;;;;18.46;55.91;100865.38;146612;587;46012;-67
2024/03/03 08:25:53;;;;;;;;;29.50;25.50;;;;;18.45;57.02;100868.84;146614;676;46020;-70
2024/03/03 08:29:05;;;;;;;;;30.50;26.25;;;;;18.44;56.20;100860.09;146607;583;47016;-70
2024/03/03 08:32:18;;;;;;;;;30.25;26.25;;;;;18.49;55.18;100856.69;146613;587;47010;-68
2024/03/03 08:35:15;;;;;;;;;30.50;24.75;;;;;18.55;55.64;100856.81;146607;569;47014;-68
2024/03/03 08:38:12;;;;;;;;;30.00;26.25;;;;;18.62;54.41;100850.81;146614;722;47010;-68
2024/03/03 08:41:11;;;;;;;;;34.50;27.50;;;;;18.69;54.27;100856.25;146611;595;46017;-65
2024/03/03 08:44:10;;;;;;;;;28.50;24.75;;;;;18.65;55.13;100858.75;146613;584;46020;-64
2024/03/03 08:47:23;;;;;;;;;33.00;25.00;;;;;17.14;56.06;100596.69;146604;581;46017;-65
2024/03/03 08:50:35;;;;;;;;;26.25;24.50;;;;;18.64;55.46;100864.88;146600;585;46028;-66
2024/03/03 08:53:31;;;;;;;;;18.00;17.00;;;;;18.67;56.80;100864.94;146604;738;46012;-67
2024/03/03 08:56:23;;;;;;;;;20.75;17.50;;;;;18.77;57.54;100866.03;146608;574;46021;-67
2024/03/03 08:59:15;;;;;;;;;18.75;18.25;;;;;18.90;54.90;100865.41;146603;590;47014;-68
2024/03/03 09:02:10;;;;;;;;;17.00;13.75;;;;;18.92;55.59;100867.22;146606;580;46020;-70
2024/03/03 09:05:12;;;;;;;;;16.75;15.75;;;;;19.01;55.05;100879.66;146602;593;46012;-68
2024/03/03 09:08:08;;;;;;;;;14.67;13.33;;;;;19.07;53.44;100882.41;146607;624;48035;-69
2024/03/03 09:11:07;;;;;;;;;12.33;11.33;;;;;19.04;55.01;100887.59;146605;637;47916;-68
2024/03/03 09:14:11;;;;;;;;;12.67;11.33;;;;;19.09;56.76;100888.56;146610;648;46010;-66
2024/03/03 09:17:15;;;;;;;;;10.33;9.33;;;;;19.03;53.36;100888.44;146605;580;46031;-66
2024/03/03 09:20:24;;;;;;;;;11.33;9.00;;;;;18.75;53.68;100881.75;146603;575;46021;-67
2024/03/03 09:23:19;;;;;;;;;13.67;11.67;;;;;18.57;53.61;100884.00;146611;671;47016;-67
2024/03/03 09:26:23;;;;;;;;;11.00;10.33;;;;;18.53;55.12;100887.38;146609;600;46020;-67
2024/03/03 09:29:33;;;;;;;;;9.33;8.33;;;;;18.58;57.11;100889.25;146605;604;46016;-68
2024/03/03 09:32:30;;;;;;;;;10.67;9.00;;;;;18.76;54.42;100890.56;146618;621;46021;-68
2024/03/03 09:35:45;;;;;;;;;12.67;11.67;;;;;18.81;53.99;100912.53;146609;611;46027;-67
2024/03/03 09:38:50;;;;;;;;;14.33;10.00;;;;;18.82;56.06;100881.03;146608;604;46020;-67
2024/03/03 09:41:59;;;;;;;;;14.00;10.00;;;;;18.95;53.66;100873.41;146602;583;47012;-68
2024/03/03 09:45:19;;;;;;;;;15.00;12.67;;;;;19.12;56.84;100869.34;146605;586;47010;-67
2024/03/03 09:48:37;;;;;;;;;15.33;11.00;;;;;19.46;58.74;100877.84;146607;599;46017;-67
2024/03/03 09:51:39;;;;;;;;;16.33;12.67;;;;;19.72;53.18;100868.69;146604;589;46020;-67
2024/03/03 09:54:41;;;;;;;;;14.00;11.67;;;;;19.89;55.13;100868.06;146603;653;47012;-67
2024/03/03 09:58:06;;;;;;;;;12.00;12.00;;;;;20.05;55.30;100873.56;146610;605;46020;-67
2024/03/03 10:01:12;;;;;;;;;5.33;4.00;;;;;20.21;51.96;100865.91;146600;616;47914;-67
2024/03/03 10:04:13;;;;;;;;;14.50;9.25;;;;;20.33;52.56;100858.19;146614;569;46012;-67
2024/03/03 10:07:17;;;;;;;;;13.25;13.25;;;;;20.43;51.43;100869.72;146606;664;47014;-68
2024/03/03 10:10:12;;;;;;;;;18.25;16.25;;;;;20.42;53.47;100862.69;146608;565;46020;-67
2024/03/03 10:13:34;;;;;;;;;15.50;14.75;;;;;19.01;55.88;100600.25;146605;565;46016;-67
2024/03/03 10:16:41;;;;;;;;;11.33;10.00;;;;;20.62;52.73;100868.22;146608;629;46020;-66
2024/03/03 10:19:45;;;;;;;;;10.33;9.67;;;;;20.65;52.66;100866.50;146605;573;47016;-67
2024/03/03 10:22:41;;;;;;;;;9.00;8.33;;;;;20.72;50.08;100854.31;146604;599;46020;-68
2024/03/03 10:25:45;;;;;;;;;9.00;7.00;;;;;20.72;51.01;100860.47;146608;583;47016;-68
2024/03/03 10:29:10;;;;;;;;;9.33;8.33;;;;;20.71;52.42;100855.16;146616;657;46020;-70
2024/03/03 10:32:05;;;;;;;;;9.00;7.00;;;;;20.72;51.79;100859.59;146611;643;46012;-69
2024/03/03 10:35:14;;;;;;;;;10.00;7.00;;;;;20.76;51.68;100851.72;146615;631;47010;-67
2024/03/03 10:38:07;;;;;;;;;7.33;6.33;;;;;20.80;49.08;100849.12;146610;591;46016;-69
2024/03/03 10:41:05;;;;;;;;;9.00;7.00;;;;;20.73;49.89;100838.53;146616;581;46021;-68
2024/03/03 10:43:59;;;;;;;;;9.67;9.33;;;;;20.76;50.80;100830.66;146608;563;47012;-69
2024/03/03 10:47:06;;;;;;;;;13.00;11.00;;;;;20.81;51.22;100836.00;146617;615;46010;-68
2024/03/03 10:50:36;;;;;;;;;8.67;8.33;;;;;20.82;54.71;100814.03;146604;564;47016;-68
2024/03/03 10:53:31;;;;;;;;;11.00;11.00;;;;;21.08;50.57;100821.31;146601;607;47010;-67
2024/03/03 10:56:27;;;;;;;;;11.33;9.33;;;;;21.19;49.90;100815.28;146603;569;46016;-68
2024/03/03 10:59:38;;;;;;;;;10.00;10.00;;;;;21.31;52.86;100808.31;146615;656;46012;-67
2024/03/03 11:02:35;;;;;;;;;9.67;8.33;;;;;21.42;50.10;100804.06;146605;641;46024;-69
2024/03/03 11:05:47;;;;;;;;;14.00;11.67;;;;;21.49;49.80;100795.31;146616;578;46020;-69
2024/03/03 11:08:49;;;;;;;;;9.00;7.00;;;;;21.56;47.44;100801.56;146603;602;47016;-67
2024/03/03 11:12:11;;;;;;;;;7.00;5.00;;;;;21.61;48.09;100797.19;146617;642;47010;-69
2024/03/03 11:15:24;;;;;;;;;11.00;9.00;;;;;21.61;49.19;100798.06;146611;572;47014;-67
2024/03/03 11:18:29;;;;;;;;;9.33;7.00;;;;;21.59;45.70;100789.28;146615;581;46021;-69
2024/03/03 11:21:35;;;;;;;;;11.67;9.67;;;;;21.58;49.07;100782.22;146608;609;46016;-67
2024/03/03 11:24:51;;;;;;;;;11.33;10.33;;;;;21.54;47.32;100769.00;146605;661;46011;-68
2024/03/03 11:28:02;;;;;;;;;18.25;14.75;;;;;21.65;48.73;100775.22;146603;687;46016;-70
2024/03/03 11:31:05;;;;;;;;;11.00;10.00;;;;;20.19;47.14;100521.00;146607;576;47020;-72
2024/03/03 11:34:04;;;;;;;;;13.67;11.33;;;;;21.53;45.93;100775.16;146601;643;47917;-71
2024/03/03 11:36:58;;;;;;;;;14.00;13.00;;;;;21.18;47.70;100762.50;146611;566;46020;-64
2024/03/03 11:40:12;;;;;;;;;13.00;9.67;;;;;20.96;50.60;100764.06;146603;615;46017;-73
2024/03/03 11:43:22;;;;;;;;;14.00;12.00;;;;;17.80;51.71;100223.06;146617;570;47010;-73
2024/03/03 11:46:37;;;;;;;;;14.67;11.00;;;;;19.79;48.37;100549.56;146605;615;46016;-74
2024/03/03 11:49:40;;;;;;;;;15.00;12.00;;;;;21.02;48.46;100747.44;146606;577;47028;-73
2024/03/03 11:53:06;;;;;;;;;15.00;12.67;;;;;20.84;46.55;100756.03;146604;570;47012;-73
2024/03/03 11:56:34;;;;;;;;;15.67;14.33;;;;;18.43;49.48;100392.75;146600;571;47021;-76
2024/03/03 11:59:51;;;;;;;;;18.33;13.67;;;;;20.16;50.85;100742.13;146605;608;46016;-76
2024/03/03 12:02:51;;;;;;;;;16.67;15.00;;;;;20.02;49.68;100743.69;146609;610;46020;-72
2024/03/03 12:05:53;;;;;;;;;16.67;15.33;;;;;20.06;49.63;100737.56;146602;621;46016;-74
2024/03/03 12:09:09;;;;;;;;;20.25;19.25;;;;;17.18;51.76;100213.37;146604;576;47010;-73
2024/03/03 12:12:13;;;;;;;;;18.33;17.33;;;;;20.29;50.54;100735.25;146603;711;46016;-71
2024/03/03 12:15:16;;;;;;;;;18.67;17.33;;;;;20.40;48.14;100727.44;146606;618;47010;-67
2024/03/03 12:18:25;;;;;;;;;13.33;11.67;;;;;20.38;45.73;100726.56;146605;577;46016;-68
2024/03/03 12:21:28;;;;;;;;;15.33;11.67;;;;;20.29;46.60;100736.13;146606;572;47010;-69
2024/03/03 12:24:47;;;;;;;;;21.25;20.25;;;;;17.54;50.85;100268.13;146604;572;46016;-67
2024/03/03 12:27:39;;;;;;;;;21.50;16.25;;;;;20.10;47.22;100731.50;146603;709;46010;-68
2024/03/03 12:30:48;;;;;;;;;20.33;15.00;;;;;19.99;46.08;100730.47;146602;574;47015;-68
2024/03/03 12:33:52;;;;;;;;;32.00;23.50;;;;;19.94;46.83;100721.66;146606;595;46010;-70
2024/03/03 12:36:49;;;;;;;;;18.00;16.50;;;;;19.89;47.26;100724.22;146601;730;47030;-68
2024/03/03 12:39:52;;;;;;;;;27.00;23.25;;;;;19.93;46.28;100722.50;146605;564;47010;-68
2024/03/03 12:43:11;;;;;;;;;14.25;13.25;;;;;19.84;46.85;100700.50;146602;628;47025;-69
2024/03/03 12:46:15;;;;;;;;;33.75;29.50;;;;;19.92;47.45;100719.00;146610;570;46021;-68
2024/03/03 12:49:17;;;;;;;;;24.75;21.00;;;;;19.92;45.63;100712.84;146604;612;46912;-69
2024/03/03 12:52:22;;;;;;;;;18.50;17.75;;;;;19.82;44.81;100704.84;146609;599;46020;-71
2024/03/03 12:55:34;;;;;;;;;16.75;15.00;;;;;19.74;46.90;100701.22;146603;673;47012;-69
2024/03/03 12:58:40;;;;;;;;;22.00;21.00;;;;;19.69;46.71;100708.16;146600;608;47010;-67
2024/03/03 13:01:35;;;;;;;;;15.33;14.00;;;;;19.69;47.17;100697.66;146605;742;46017;-66
2024/03/03 13:04:41;;;;;;;;;15.67;12.33;;;;;19.71;47.65;100695.03;146605;651;47010;-69
2024/03/03 13:07:34;;;;;;;;;22.75;21.50;;;;;19.74;47.18;100695.94;146602;615;46016;-69
2024/03/03 13:10:28;;;;;;;;;14.00;12.75;;;;;19.80;46.09;100688.13;146610;641;45021;-68
2024/03/03 13:13:22;;;;;;;;;19.75;16.25;;;;;19.81;45.65;100689.91;146601;630;46012;-68
2024/03/03 13:16:14;;;;;;;;;16.00;14.50;;;;;19.74;45.59;100684.53;146601;599;46021;-70
2024/03/03 13:19:17;;;;;;;;;17.00;15.00;;;;;19.68;46.43;100685.34;146596;704;47012;-69
2024/03/03 13:22:15;;;;;;;;;12.00;9.00;;;;;19.61;44.48;100692.22;146602;578;47013;-69
2024/03/03 13:25:15;;;;;;;;;13.33;12.67;;;;;19.45;45.78;100681.50;146598;630;47014;-68
2024/03/03 13:28:20;;;;;;;;;16.50;13.75;;;;;19.44;45.95;100679.69;146598;564;46020;-68
2024/03/03 13:31:16;;;;;;;;;15.25;13.50;;;;;19.42;46.43;100681.44;146595;575;46017;-68
2024/03/03 13:34:16;;;;;;;;;11.33;10.00;;;;;19.36;45.25;100677.84;146599;657;46029;-68
2024/03/03 13:37:17;;;;;;;;;9.00;7.00;;;;;19.23;45.45;100675.91;146600;552;46016;-67
2024/03/03 13:40:13;;;;;;;;;7.00;6.00;;;;;19.08;44.37;100699.31;146601;605;47010;-70
2024/03/03 13:43:10;;;;;;;;;7.00;6.00;;;;;19.03;45.68;100691.34;146600;635;46016;-66
2024/03/03 13:46:10;;;;;;;;;8.67;6.33;;;;;19.01;46.02;100687.84;146601;572;47010;-68
2024/03/03 13:49:17;;;;;;;;;8.33;6.00;;;;;19.05;44.57;100678.25;146596;618;47016;-70
2024/03/03 13:52:14;;;;;;;;;8.00;7.00;;;;;19.05;45.23;100687.00;146603;654;46021;-67
2024/03/03 13:55:09;;;;;;;;;10.33;8.00;;;;;19.04;44.88;100694.87;146597;564;46035;-69
2024/03/03 13:58:01;;;;;;;;;10.67;9.33;;;;;19.05;45.02;100679.12;146598;598;46044;-68
2024/03/03 14:00:54;;;;;;;;;13.67;10.67;;;;;18.96;44.27;100686.88;146595;689;46017;-69
2024/03/03 14:03:50;;;;;;;;;8.67;7.33;;;;;18.94;45.77;100685.97;146602;585;46033;-69
2024/03/03 14:06:54;;;;;;;;;9.67;8.00;;;;;18.99;45.37;100686.91;146600;657;46012;-70
2024/03/03 14:10:01;;;;;;;;;10.00;9.00;;;;;18.94;44.17;100688.59;146601;620;46021;-71
2024/03/03 14:13:03;;;;;;;;;14.33;11.00;;;;;18.87;43.84;100690.22;146597;715;47012;-69